createdAt,value
2022-10-11T00:00:05.266Z,12.82
2022-10-11T00:05:13.308Z,6.97
2022-10-11T00:10:14.959Z,6.63
2022-10-11T00:15:19.299Z,14.18
2022-10-11T00:20:20.724Z,16.98
2022-10-11T00:25:22.085Z,10.48
2022-10-11T00:30:23.515Z,8.70
2022-10-11T00:35:25.243Z,9.10
2022-10-11T00:40:26.639Z,9.48
2022-10-11T00:45:27.991Z,10.90
2022-10-11T00:50:32.732Z,14.70
2022-10-11T00:55:49.939Z,10.63
2022-10-11T01:00:51.840Z,8.50
2022-10-11T01:05:53.858Z,9.23
2022-10-11T01:10:56.137Z,17.60
2022-10-11T01:16:22.618Z,11.25
2022-10-11T01:21:52.078Z,8.10
2022-10-11T01:27:10.337Z,9.73
2022-10-11T01:32:19.116Z,8.98
2022-10-11T01:37:32.650Z,11.40
2022-10-11T01:42:38.408Z,9.60
2022-10-11T01:47:39.836Z,7.80
2022-10-11T01:52:44.597Z,8.95
2022-10-11T01:58:22.226Z,8.15
2022-10-11T02:03:50.840Z,11.43
2022-10-11T02:08:55.685Z,8.70
2022-10-11T02:14:07.225Z,9.75
2022-10-11T02:19:11.916Z,7.53
2022-10-11T02:24:22.152Z,9.98
2022-10-11T02:29:27.648Z,8.10
2022-10-11T02:34:38.070Z,9.30
2022-10-11T02:39:52.412Z,9.93
2022-10-11T02:45:02.936Z,7.82
2022-10-11T02:50:05.097Z,9.40
2022-10-11T02:55:07.883Z,9.57
2022-10-11T03:00:10.055Z,11.75
2022-10-11T03:05:11.459Z,10.23
2022-10-11T03:10:12.875Z,8.15
2022-10-11T03:15:14.257Z,12.30
2022-10-11T03:20:15.696Z,10.77
2022-10-11T03:25:17.363Z,9.25
2022-10-11T03:30:18.744Z,7.80
2022-10-11T03:35:20.338Z,9.07
2022-10-11T03:40:21.676Z,9.52
2022-10-11T03:45:23.180Z,12.95
2022-10-11T03:50:24.572Z,9.15
2022-10-11T03:55:25.944Z,8.73
2022-10-11T04:00:27.298Z,12.27
2022-10-11T04:05:28.693Z,11.80
2022-10-11T04:10:30.363Z,8.50
2022-10-11T04:15:32.213Z,13.27
2022-10-11T04:20:34.269Z,9.82
2022-10-11T04:25:38.727Z,12.50
2022-10-11T04:30:40.261Z,12.00
2022-10-11T04:35:41.643Z,12.80
2022-10-11T04:46:01.078Z,14.30
2022-10-11T04:56:59.159Z,15.15
2022-10-11T05:24:55.002Z,26.60
2022-10-11T05:29:54.580Z,30.23
2022-10-11T05:34:58.965Z,24.13
2022-10-11T05:40:00.477Z,21.73
2022-10-11T05:45:05.417Z,21.52
2022-10-11T05:50:07.461Z,23.65
2022-10-11T05:55:09.404Z,27.45
2022-10-11T06:00:11.321Z,19.33
2022-10-11T06:05:12.706Z,29.33
2022-10-11T06:10:14.200Z,29.95
2022-10-11T06:15:15.871Z,31.33
2022-10-11T06:20:17.507Z,31.65
2022-10-11T06:25:19.105Z,32.65
2022-10-11T06:30:20.544Z,31.98
2022-10-11T06:35:22.061Z,41.38
2022-10-11T06:40:24.334Z,57.80
2022-10-11T06:45:25.809Z,29.70
2022-10-11T06:50:54.461Z,30.83
2022-10-11T06:55:50.955Z,29.23
2022-10-11T07:00:52.445Z,28.15
2022-10-11T07:05:53.967Z,36.97
2022-10-11T07:11:15.368Z,36.45
2022-10-11T07:16:17.622Z,37.40
2022-10-11T07:21:19.853Z,36.80
2022-10-11T07:26:21.407Z,48.97
2022-10-11T07:31:25.268Z,39.38
2022-10-11T07:36:28.236Z,46.10
2022-10-11T07:41:29.748Z,39.38
2022-10-11T07:46:31.687Z,45.88
2022-10-11T07:51:38.193Z,56.67
2022-10-11T07:56:39.890Z,53.63
2022-10-11T08:01:41.380Z,49.35
2022-10-11T08:07:11.768Z,53.88
2022-10-11T08:12:13.204Z,52.60
2022-10-11T08:17:14.799Z,49.22
2022-10-11T08:22:16.305Z,57.90
2022-10-11T08:27:17.793Z,56.03
2022-10-11T08:32:19.332Z,55.80
2022-10-11T08:37:20.886Z,52.13
2022-10-11T08:42:39.419Z,44.13
2022-10-11T08:47:44.110Z,46.67
2022-10-11T08:53:02.171Z,55.67
2022-10-11T08:58:20.708Z,51.03
2022-10-11T09:03:25.454Z,51.97
2022-10-11T09:14:10.296Z,48.30
2022-10-11T09:38:14.949Z,48.60
2022-10-11T10:00:21.747Z,48.42
2022-10-11T10:05:39.704Z,41.40
2022-10-11T10:16:36.697Z,47.05
2022-10-11T10:21:45.694Z,34.83
2022-10-11T10:27:19.516Z,41.97
2022-10-11T10:32:36.005Z,42.95
2022-10-11T10:37:55.884Z,41.67
2022-10-11T10:43:00.856Z,38.28
2022-10-11T10:48:28.613Z,33.38
2022-10-11T10:54:13.808Z,38.95
2022-10-11T10:59:43.879Z,34.25
2022-10-11T11:10:21.587Z,32.15
2022-10-11T11:15:47.793Z,33.45
2022-10-11T11:20:55.049Z,29.50
2022-10-11T11:26:22.232Z,25.38
2022-10-11T11:31:46.401Z,29.33
2022-10-11T11:37:12.470Z,30.60
2022-10-11T11:42:22.945Z,24.23
2022-10-11T11:47:37.586Z,22.98
2022-10-11T11:52:51.722Z,17.40
2022-10-11T11:58:16.915Z,15.75
2022-10-11T12:03:46.860Z,20.63
2022-10-11T12:09:09.508Z,13.18
2022-10-11T12:14:39.348Z,18.98
2022-10-11T12:20:06.808Z,11.50
2022-10-11T12:25:25.774Z,11.27
2022-10-11T12:30:42.901Z,11.75
2022-10-11T12:36:32.320Z,8.88
2022-10-11T12:53:01.589Z,7.60
2022-10-11T12:58:06.286Z,13.13
2022-10-11T13:15:39.351Z,9.80
2022-10-11T13:20:38.909Z,9.57
2022-10-11T13:25:44.146Z,7.13
2022-10-11T13:36:05.504Z,9.65
2022-10-11T13:41:10.370Z,9.63
2022-10-11T13:46:19.913Z,9.73
2022-10-11T13:51:38.368Z,11.40
2022-10-11T13:57:01.336Z,14.67
2022-10-11T14:02:17.355Z,8.18
2022-10-11T14:07:47.555Z,11.23
2022-10-11T14:18:54.618Z,9.20
2022-10-11T14:24:10.750Z,9.50
2022-10-11T14:29:28.965Z,10.32
2022-10-11T14:34:47.348Z,10.05
2022-10-11T14:39:50.653Z,9.13
2022-10-11T14:44:52.124Z,8.52
2022-10-11T14:49:53.783Z,11.18
2022-10-11T14:55:07.339Z,11.57
2022-10-11T15:00:36.395Z,10.77
2022-10-11T15:05:42.771Z,10.73
2022-10-11T15:10:51.299Z,10.02
2022-10-11T15:15:52.884Z,9.13
2022-10-11T15:20:54.676Z,14.65
2022-10-11T15:25:57.087Z,13.48
2022-10-11T15:31:04.870Z,9.35
2022-10-11T15:36:11.233Z,11.60
2022-10-11T15:41:14.080Z,10.27
2022-10-11T15:46:20.977Z,10.57
2022-10-11T15:56:52.082Z,9.57
2022-10-11T16:01:54.148Z,13.07
2022-10-11T16:06:58.343Z,13.45
2022-10-11T16:12:00.217Z,9.52
2022-10-11T16:17:51.655Z,13.82
2022-10-11T16:44:57.558Z,11.43
2022-10-11T16:49:59.558Z,16.70
2022-10-11T16:55:23.276Z,12.07
2022-10-11T17:05:50.453Z,14.98
2022-10-11T17:10:57.883Z,18.92
2022-10-11T17:15:59.794Z,18.33
2022-10-11T17:21:29.443Z,17.70
2022-10-11T17:38:31.180Z,18.00
2022-10-11T17:43:41.028Z,13.48
2022-10-11T17:48:42.684Z,13.68
2022-10-11T17:53:44.768Z,14.43
2022-10-11T17:58:46.978Z,16.02
2022-10-11T18:04:05.756Z,15.40
2022-10-11T18:09:07.581Z,16.67
2022-10-11T18:14:23.923Z,16.50
2022-10-11T18:19:26.331Z,13.82
2022-10-11T18:24:31.315Z,20.33
2022-10-11T18:29:38.978Z,18.25
2022-10-11T18:34:40.437Z,20.63
2022-10-11T18:39:42.040Z,15.40
2022-10-11T18:44:43.517Z,18.35
2022-10-11T18:56:09.100Z,16.95
2022-10-11T19:01:12.272Z,19.95
2022-10-11T19:12:48.018Z,14.35
2022-10-11T19:23:24.553Z,16.65
2022-10-11T19:34:38.211Z,15.05
2022-10-11T19:45:52.459Z,15.18
2022-10-11T19:51:02.422Z,18.90
2022-10-11T20:02:18.773Z,14.38
2022-10-11T20:07:23.523Z,14.68
2022-10-11T20:12:29.537Z,15.23
2022-10-11T20:17:31.372Z,18.05
2022-10-11T20:22:35.801Z,12.23
2022-10-11T20:27:37.457Z,13.10
2022-10-11T20:32:39.007Z,15.18
2022-10-11T20:37:40.406Z,15.70
2022-10-11T20:42:41.823Z,16.60
2022-10-11T20:47:43.287Z,11.25
2022-10-11T20:52:45.030Z,12.40
2022-10-11T20:57:47.215Z,14.13
2022-10-11T21:02:50.384Z,14.18
2022-10-11T21:07:51.951Z,16.92
2022-10-11T21:12:55.106Z,12.02
2022-10-11T21:17:56.923Z,12.95
2022-10-11T21:22:58.528Z,12.77
2022-10-11T21:28:00.024Z,13.65
2022-10-11T21:33:01.846Z,13.52
2022-10-11T21:38:03.262Z,18.23
2022-10-11T21:43:04.927Z,14.65
2022-10-11T21:48:07.722Z,11.88
2022-10-11T21:53:09.268Z,15.20
2022-10-11T21:58:10.655Z,20.20
2022-10-11T22:03:12.038Z,27.88
2022-10-11T22:08:15.075Z,45.85
2022-10-11T22:13:16.584Z,54.05
2022-10-11T22:18:18.563Z,47.13
2022-10-11T22:23:23.214Z,27.25
2022-10-11T22:28:25.053Z,16.73
2022-10-11T22:33:26.805Z,19.85
2022-10-11T22:38:29.016Z,18.65
2022-10-11T22:43:30.588Z,16.15
2022-10-11T22:48:32.221Z,14.45
2022-10-11T22:53:42.920Z,13.30
2022-10-11T22:58:44.360Z,11.50
2022-10-11T23:03:48.988Z,17.05
2022-10-11T23:08:50.595Z,15.52
2022-10-11T23:13:52.039Z,13.23
2022-10-11T23:18:54.436Z,13.65
2022-10-11T23:23:55.935Z,15.15
2022-10-11T23:29:00.317Z,11.63
2022-10-11T23:34:03.682Z,13.80
2022-10-11T23:39:07.594Z,15.32
2022-10-11T23:44:14.073Z,11.73
2022-10-11T23:49:20.422Z,9.80
2022-10-11T23:54:21.790Z,11.60
2022-10-11T23:59:23.374Z,11.98
